[x] [x]
.:Aeroklub Partizánske:. |  .:Fotogaléria:. |  .:Videogaléria:. |  .:Foto týždňa:. |  .:Kniha návštev:. |  .:Linky:. |  .:Moje konto:.
 MENU [x]

 METEO [x]

 FotoGaléria [x]

 Slnko [x]
LZPT Partizánske
48°37'N 18°20'E
Východ: 7:20 AM
Západ: 5:41 PM
LZIB Bratislava
48°10'N 17°12'E
Východ: 7:24 AM
Západ: 5:47 PM
LZKZ Košice
48°39'N 21°14'E
Východ: 7:08 AM
Západ: 5:30 PM

 Jazyky [x]
Vyberte jazyk rozhrania:

Slovak English German Polish


  SPRÁVY METAR - ČESKÁ REPUBLIKA
Brno-TuřanyLKTB 250400Z 07007KT 6000 BKN007 OVC010 03/01 Q1023 TEMPO 3000 BRdekóduj
ČáslavLKCV 250400Z 00000KT 8000 OVC017 04/04 Q1022 NOSIGdekóduj
HolešovLKHO 010800Z VRB03KT CAVOK 23/17 Q1019dekóduj
Hradec Královedekóduj
Karlovy VaryLKKV 250400Z VRB02KT 7000 2200N BKN003 OVC007 04/04 Q1020dekóduj
KunoviceLKKU 241400Z 36021G32KT CAVOK 06/03 Q1020 RMK REG QNH 1017dekóduj
LiberecLKLB 020602Z 16003KT 9999 FEW016 BKN043 M01/M02 Q1016dekóduj
Mariánsky Láznědekóduj
Náměšť nad OslavouLKNA 250400Z VRB02KT 9999 BKN009 OVC011 02/01 Q1022 NOSIGdekóduj
Ostrava-MošnovLKMT 250400Z VRB01KT 5000 BR BKN017 OVC037 03/01 Q1023 NOSIGdekóduj
PardubiceLKPD 250400Z 10003KT 5000 BR OVC025 00/M00 Q1022 NOSIGdekóduj
Praha-KbelyLKKB 250400Z 00000KT 1200 R24/0800V1000N BR OVC003 04/04 Q1021dekóduj
Praha-RuzyněLKPR 250400Z 26005KT 0700 R24/1200U R30/0700N FG VV002 04/04 Q1021 NOSIGdekóduj
PřerovLKPO 010000Z 05005KT CAVOK 04/01 Q1013dekóduj
 FreeFly INFO [x]
COROWA 2009


COROWA 2009


COROWA 2009



 LZPT webcam [x]

 Foto týždňa [x]

 KBO SNA [x]

 Login [x]
Užívateľské meno

Heslo


Ešte nemáš konto? Môžeš si ho vytvoriť. Registrovaný užívateľ má množstvo výhod, napr. posielanie okamžitých správ iným užívateľom, posielanie komentárov s vlastným menom, možnosť pridávať fotografie do galérie...

 Kto je online [x]
Momentálne je online 40 hostí a 0 členov.

Ste anonymný užívateľ. Zaregistrovať sa môžete tu

DETAILY

 Linky [x]

 Počítadlo návštev [x]
Zaznamenali sme
34078315
strán zobrazených od júna 2003

Počet dnešných unikátnych IP adries:
0



www.freefly.sk
Powered by SzMsoft ©2003-2005. Polish translations by Cezary Dąbek. Flying server www.freefly.sk is administrated by maro@freefly.sk - www.artweb.freefly.sk
PHP-Nuke Copyright © 2004 by Francisco Burzi. This is free software, and you may redistribute it under the GPL. PHP-Nuke comes with absolutely no warranty, for details, see the license.